Time;durP1;ratioP1;P1;durP2;ratioP2;P2;SDS_P1;SDS_P2;PMS_P1;PMS_P2;Temp;Humidity;BMP_temperature;BMP_pressure;BME280_temperature;BME280_humidity;BME280_pressure;Samples;Min_cycle;Max_cycle;Signal;HPM_P1;HPM_P2
2024/01/16 00:00:33;;;;;;;;;65.00;47.67;;;;;3.45;51.91;100943.63;4969533;28;45624;-64
2024/01/16 00:02:59;;;;;;;;;65.00;47.67;;;;;3.41;52.03;100941.75;4970164;28;45648;-66
2024/01/16 00:05:24;;;;;;;;;64.33;48.67;;;;;3.37;52.28;100934.72;4978295;28;45505;-67
2024/01/16 00:07:50;;;;;;;;;60.00;47.67;;;;;3.35;52.12;100929.50;4977862;28;46069;-65
2024/01/16 00:10:16;;;;;;;;;62.67;48.67;;;;;3.29;51.98;100921.50;4974257;28;45949;-66
2024/01/16 00:12:41;;;;;;;;;64.33;48.00;;;;;3.35;52.93;100916.53;4971179;28;45492;-65
2024/01/16 00:15:08;;;;;;;;;64.00;48.67;;;;;3.38;52.27;100931.28;4971023;28;45796;-66
2024/01/16 00:17:34;;;;;;;;;64.00;50.00;;;;;3.33;52.81;100917.31;4975532;28;45580;-66
2024/01/16 00:20:00;;;;;;;;;63.00;48.67;;;;;3.31;52.45;100917.25;4975624;28;46393;-66
2024/01/16 00:22:29;;;;;;;;;62.00;47.33;;;;;3.21;52.46;100904.84;4971127;28;45585;-67
2024/01/16 00:24:55;;;;;;;;;64.00;49.67;;;;;3.28;52.97;100911.97;4956895;28;46013;-66
2024/01/16 00:27:21;;;;;;;;;66.33;49.67;;;;;3.24;53.04;100911.81;4972186;28;46710;-66
2024/01/16 00:29:48;;;;;;;;;62.00;48.00;;;;;3.24;53.28;100915.28;4976119;28;45493;-67
2024/01/16 00:32:17;;;;;;;;;61.67;48.33;;;;;3.25;52.77;100909.28;4972709;28;45611;-65
2024/01/16 00:34:45;;;;;;;;;61.00;48.33;;;;;3.21;52.99;100906.53;4976534;28;45458;-66
2024/01/16 00:37:11;;;;;;;;;62.33;49.00;;;;;3.20;53.41;100910.81;4975741;28;45998;-66
2024/01/16 00:39:36;;;;;;;;;55.00;39.33;;;;;3.21;53.48;100904.84;4977215;28;45520;-65
2024/01/16 00:42:02;;;;;;;;;63.33;47.33;;;;;3.22;53.00;100916.06;4974715;28;45522;-66
2024/01/16 00:44:28;;;;;;;;;62.33;48.67;;;;;3.25;52.86;100930.00;4964736;28;45522;-67
2024/01/16 00:46:53;;;;;;;;;59.67;46.33;;;;;3.17;53.10;100910.72;4972289;28;46141;-67
2024/01/16 00:49:19;;;;;;;;;61.67;47.00;;;;;3.21;52.75;100917.78;4962495;28;45613;-65
2024/01/16 00:51:45;;;;;;;;;62.33;46.33;;;;;3.18;52.94;100909.91;4977426;28;45491;-65
2024/01/16 00:54:11;;;;;;;;;60.67;45.67;;;;;3.22;52.73;100905.69;4976143;28;45504;-65
2024/01/16 00:56:36;;;;;;;;;60.00;45.33;;;;;3.13;52.89;100896.81;4976711;28;46505;-65
2024/01/16 00:59:03;;;;;;;;;59.00;46.33;;;;;3.18;52.94;100915.09;4966794;28;45453;-66
2024/01/16 01:01:28;;;;;;;;;60.33;47.00;;;;;3.14;53.23;100908.03;4975602;28;45800;-65
2024/01/16 01:03:54;;;;;;;;;63.67;48.33;;;;;3.01;53.36;100904.13;4975144;28;45573;-67
2024/01/16 01:06:20;;;;;;;;;57.67;45.00;;;;;3.01;53.42;100921.34;4975504;28;45432;-65
2024/01/16 01:08:46;;;;;;;;;63.00;48.00;;;;;2.90;53.15;100918.41;4977079;28;45425;-65
2024/01/16 01:11:12;;;;;;;;;61.33;49.33;;;;;2.70;53.67;100918.53;4975268;28;45467;-67
2024/01/16 01:13:38;;;;;;;;;63.67;49.33;;;;;2.70;53.90;100926.28;4977470;28;45578;-66
2024/01/16 01:16:04;;;;;;;;;68.67;53.33;;;;;2.63;53.89;100918.25;4974328;28;46329;-65
2024/01/16 01:18:29;;;;;;;;;68.67;54.00;;;;;2.39;54.23;100890.66;4973320;28;45439;-66
2024/01/16 01:20:56;;;;;;;;;70.33;54.33;;;;;2.42;54.45;100897.66;4974882;28;45595;-67
2024/01/16 01:23:21;;;;;;;;;72.33;56.00;;;;;2.28;55.33;100900.63;4973350;28;45392;-67
2024/01/16 01:25:47;;;;;;;;;69.00;55.33;;;;;2.27;55.60;100905.72;4974141;28;46158;-66
2024/01/16 01:28:16;;;;;;;;;68.00;53.00;;;;;2.16;55.27;100899.25;4973469;28;45460;-66
2024/01/16 01:30:41;;;;;;;;;69.33;53.00;;;;;2.15;55.58;100894.91;4972544;28;45540;-64
2024/01/16 01:33:07;;;;;;;;;72.67;56.67;;;;;2.16;55.04;100895.00;4973839;28;45671;-65
2024/01/16 01:35:33;;;;;;;;;72.00;54.67;;;;;2.26;54.76;100907.44;4969394;28;45900;-64
2024/01/16 01:37:58;;;;;;;;;68.33;50.67;;;;;2.29;55.53;100922.16;4964813;28;45514;-67
2024/01/16 01:40:24;;;;;;;;;72.00;54.00;;;;;2.25;55.25;100928.91;4975946;28;45493;-68
2024/01/16 01:42:49;;;;;;;;;73.00;55.67;;;;;2.24;55.83;100919.41;4978404;28;45481;-66
2024/01/16 01:45:15;;;;;;;;;70.67;53.67;;;;;2.08;54.99;100907.59;4978760;28;45562;-65
2024/01/16 01:47:44;;;;;;;;;71.67;55.67;;;;;2.17;55.68;100924.28;4976912;28;45502;-67
2024/01/16 01:50:10;;;;;;;;;79.00;58.67;;;;;2.20;55.81;100937.31;4992065;28;45459;-65
2024/01/16 01:52:39;;;;;;;;;72.00;55.33;;;;;2.16;55.57;100940.59;4974951;28;45538;-67
2024/01/16 01:55:08;;;;;;;;;73.33;56.00;;;;;2.21;55.84;100946.84;4977697;28;46160;-67
2024/01/16 01:57:34;;;;;;;;;79.33;61.00;;;;;2.13;55.44;100937.06;4975553;28;45464;-66
2024/01/16 02:00:00;;;;;;;;;70.67;56.33;;;;;2.19;55.82;100936.44;4974190;28;45699;-67
2024/01/16 02:02:27;;;;;;;;;72.67;56.00;;;;;2.25;55.66;100938.38;4975169;28;45694;-67
2024/01/16 02:04:52;;;;;;;;;59.67;45.67;;;;;2.28;55.42;100941.09;4977200;28;46251;-66
2024/01/16 02:07:18;;;;;;;;;71.67;53.33;;;;;2.18;56.19;100913.13;4971620;28;45488;-66
2024/01/16 02:09:44;;;;;;;;;76.67;55.33;;;;;2.32;55.22;100924.88;4976547;28;45804;-67
2024/01/16 02:12:09;;;;;;;;;69.67;53.67;;;;;2.40;54.76;100941.56;4975971;28;45538;-66
2024/01/16 02:14:35;;;;;;;;;75.33;56.67;;;;;2.40;55.32;100933.81;4976875;28;45558;-66
2024/01/16 02:17:01;;;;;;;;;73.00;56.33;;;;;2.35;55.34;100927.59;4976170;28;45448;-66
2024/01/16 02:19:27;;;;;;;;;76.33;55.67;;;;;2.26;55.81;100919.47;4969619;28;45528;-69
2024/01/16 02:21:59;;;;;;;;;75.33;56.33;;;;;2.27;56.15;100932.44;4975275;28;45494;-67
2024/01/16 02:24:25;;;;;;;;;74.67;55.33;;;;;2.22;56.28;100926.22;4969720;28;46369;-66
2024/01/16 02:26:50;;;;;;;;;76.67;60.33;;;;;2.10;56.28;100918.00;4974887;28;45530;-67
2024/01/16 02:29:16;;;;;;;;;74.67;58.33;;;;;1.89;56.61;100898.22;4972308;28;45445;-68
2024/01/16 02:31:42;;;;;;;;;77.33;59.67;;;;;1.91;57.22;100909.50;4966818;28;45566;-66
2024/01/16 02:34:07;;;;;;;;;83.00;68.00;;;;;1.94;57.28;100918.19;4972957;28;45545;-66
2024/01/16 02:36:33;;;;;;;;;85.25;68.75;;;;;1.87;58.20;100905.03;4972319;28;45478;-67
2024/01/16 02:38:59;;;;;;;;;81.50;63.75;;;;;1.81;57.80;100914.25;4971547;28;45591;-68
2024/01/16 02:41:25;;;;;;;;;85.75;70.50;;;;;1.74;57.37;100910.53;4960606;28;45833;-67
2024/01/16 02:43:50;;;;;;;;;84.75;74.00;;;;;1.73;58.45;100907.88;4971544;28;47762;-67
2024/01/16 02:46:16;;;;;;;;;85.75;69.25;;;;;1.66;58.68;100896.44;4974799;28;45311;-66
2024/01/16 02:48:44;;;;;;;;;84.50;71.00;;;;;1.72;58.16;100899.28;4976904;28;45482;-67
2024/01/16 02:51:10;;;;;;;;;83.25;70.75;;;;;1.75;58.36;100901.09;4977700;28;45502;-66
2024/01/16 02:53:36;;;;;;;;;89.50;71.75;;;;;1.64;58.55;100875.72;4976928;28;46178;-67
2024/01/16 02:56:02;;;;;;;;;86.50;70.00;;;;;1.75;58.41;100890.75;4976505;28;45487;-66
2024/01/16 02:58:29;;;;;;;;;90.75;77.50;;;;;1.70;58.43;100882.81;4977758;28;45368;-66
2024/01/16 03:00:55;;;;;;;;;94.50;82.75;;;;;1.68;58.95;100894.78;4978138;28;45427;-66
2024/01/16 03:03:21;;;;;;;;;100.50;85.50;;;;;1.58;58.70;100888.38;4976906;28;45442;-66
2024/01/16 03:05:48;;;;;;;;;97.50;81.00;;;;;1.55;59.16;100882.22;4975422;28;45577;-67
2024/01/16 03:08:13;;;;;;;;;88.75;73.50;;;;;1.45;58.77;100868.94;4974973;28;45408;-66
2024/01/16 03:10:39;;;;;;;;;99.25;79.25;;;;;1.48;59.12;100881.09;4991231;28;45473;-66
2024/01/16 03:13:05;;;;;;;;;91.50;80.75;;;;;1.46;59.30;100882.72;4974931;28;46474;-66
2024/01/16 03:15:30;;;;;;;;;97.25;84.50;;;;;1.34;58.88;100859.88;4974441;28;46219;-66
2024/01/16 03:17:57;;;;;;;;;99.00;86.00;;;;;1.44;58.99;100871.44;4967223;28;45780;-69
2024/01/16 03:20:23;;;;;;;;;104.75;89.75;;;;;1.41;59.00;100874.78;4975309;28;46232;-66
2024/01/16 03:22:49;;;;;;;;;103.00;89.75;;;;;1.37;59.74;100866.84;4974546;28;46227;-67
2024/01/16 03:25:16;;;;;;;;;86.25;72.00;;;;;1.34;59.19;100870.19;4977113;28;45585;-67
2024/01/16 03:27:42;;;;;;;;;116.50;94.75;;;;;1.34;59.22;100865.03;4975774;28;45340;-67
2024/01/16 03:30:08;;;;;;;;;110.00;99.00;;;;;1.33;59.74;100864.94;4974630;28;45449;-66
2024/01/16 03:32:35;;;;;;;;;114.00;98.00;;;;;1.34;59.82;100875.34;4975276;28;45571;-67
2024/01/16 03:35:00;;;;;;;;;100.50;83.25;;;;;1.24;60.43;100886.13;4973968;28;45602;-66
2024/01/16 03:37:26;;;;;;;;;110.25;97.75;;;;;1.13;60.01;100871.88;4973601;28;45577;-66
2024/01/16 03:39:52;;;;;;;;;116.75;99.00;;;;;1.13;59.94;100870.16;4976149;28;45443;-66
2024/01/16 03:42:17;;;;;;;;;113.50;95.75;;;;;1.12;59.59;100863.25;4974748;28;46756;-67
2024/01/16 03:44:43;;;;;;;;;115.50;101.00;;;;;0.95;59.99;100851.31;4976014;28;45240;-66
2024/01/16 03:47:09;;;;;;;;;109.50;95.50;;;;;1.17;60.36;100873.78;4974885;28;45511;-67
2024/01/16 03:49:34;;;;;;;;;117.50;101.00;;;;;1.01;60.44;100854.19;4974162;28;45542;-66
2024/01/16 03:52:00;;;;;;;;;115.75;99.75;;;;;1.13;60.40;100877.91;4975305;28;46080;-67
2024/01/16 03:54:26;;;;;;;;;118.00;99.75;;;;;1.12;60.82;100868.41;4975257;28;45991;-66
2024/01/16 03:56:53;;;;;;;;;121.75;98.75;;;;;1.18;60.54;100868.66;4972433;28;45492;-67
2024/01/16 03:59:18;;;;;;;;;116.25;100.00;;;;;0.85;60.36;100819.13;4976089;28;45629;-66
2024/01/16 04:01:45;;;;;;;;;114.50;95.25;;;;;0.99;60.51;100841.22;4973544;28;45486;-67
2024/01/16 04:04:11;;;;;;;;;111.50;95.00;;;;;1.06;60.14;100865.56;4975674;28;45453;-66
2024/01/16 04:06:38;;;;;;;;;113.75;96.75;;;;;0.97;61.07;100840.28;4973319;28;45507;-66
2024/01/16 04:09:04;;;;;;;;;121.25;102.50;;;;;0.96;60.55;100832.47;4975205;28;45594;-67
2024/01/16 04:11:30;;;;;;;;;116.00;100.00;;;;;1.07;60.50;100869.94;4975067;28;45526;-67
2024/01/16 04:13:56;;;;;;;;;114.00;98.25;;;;;1.10;60.78;100872.63;4970861;28;45409;-67
2024/01/16 04:16:22;;;;;;;;;121.00;99.75;;;;;0.90;61.17;100848.56;4963997;28;45577;-67
2024/01/16 04:18:47;;;;;;;;;111.25;102.25;;;;;0.95;61.16;100848.75;4976043;28;45881;-67
2024/01/16 04:21:13;;;;;;;;;109.50;93.75;;;;;0.78;61.57;100830.88;4975678;28;46291;-67
2024/01/16 04:23:41;;;;;;;;;112.00;93.75;;;;;1.02;61.18;100850.78;4974570;28;46572;-66
2024/01/16 04:26:07;;;;;;;;;101.75;88.00;;;;;0.89;60.81;100833.03;4978648;28;45409;-66
2024/01/16 04:28:33;;;;;;;;;103.75;86.75;;;;;0.94;61.68;100844.41;4980167;28;45550;-67
2024/01/16 04:31:00;;;;;;;;;112.25;89.50;;;;;1.06;60.71;100843.22;4979692;28;45473;-67
2024/01/16 04:33:27;;;;;;;;;89.75;82.25;;;;;0.94;60.94;100826.38;4977700;28;45472;-66
2024/01/16 04:35:52;;;;;;;;;106.00;89.50;;;;;1.09;60.52;100836.44;4980055;28;45480;-66
2024/01/16 04:38:18;;;;;;;;;96.00;82.75;;;;;0.93;60.36;100810.03;4977870;28;45349;-66
2024/01/16 04:40:43;;;;;;;;;102.25;85.25;;;;;0.97;60.80;100816.16;4977565;28;47744;-66
2024/01/16 04:43:09;;;;;;;;;101.00;82.00;;;;;1.12;60.71;100836.59;4980052;28;45432;-66
2024/01/16 04:45:34;;;;;;;;;90.00;83.75;;;;;1.11;60.11;100821.91;4978885;28;45510;-65
2024/01/16 04:48:00;;;;;;;;;97.00;78.75;;;;;1.09;60.42;100829.56;4977569;28;45479;-66
2024/01/16 04:50:31;;;;;;;;;89.75;74.25;;;;;1.11;60.32;100820.19;4976937;28;46903;-66
2024/01/16 04:52:59;;;;;;;;;91.75;78.25;;;;;1.20;59.74;100828.31;4963888;28;45627;-66
2024/01/16 04:55:26;;;;;;;;;98.75;84.25;;;;;1.13;60.13;100810.84;4975034;28;45479;-66
2024/01/16 04:57:52;;;;;;;;;100.50;85.25;;;;;1.15;60.57;100811.78;4968314;28;45352;-66
2024/01/16 05:00:18;;;;;;;;;93.00;82.25;;;;;1.21;60.53;100819.78;4974471;28;45964;-70
2024/01/16 05:02:44;;;;;;;;;107.00;91.25;;;;;1.13;60.72;100815.13;4965026;28;46515;-67
2024/01/16 05:05:09;;;;;;;;;113.00;91.00;;;;;1.01;61.00;100789.69;4975347;28;45920;-66
2024/01/16 05:07:35;;;;;;;;;112.75;94.00;;;;;0.98;61.08;100800.78;4971341;28;45392;-66
2024/01/16 05:10:01;;;;;;;;;128.00;107.00;;;;;0.79;61.15;100781.06;4973629;28;46276;-67
2024/01/16 05:12:27;;;;;;;;;120.75;105.50;;;;;0.79;61.74;100793.09;4974531;28;45638;-66
2024/01/16 05:14:53;;;;;;;;;113.00;101.75;;;;;0.78;61.61;100793.88;4968550;28;45700;-66
2024/01/16 05:17:18;;;;;;;;;111.75;97.75;;;;;0.60;62.11;100768.22;4965164;28;45645;-66
2024/01/16 05:19:44;;;;;;;;;119.00;104.00;;;;;0.63;61.96;100779.53;4973944;28;46579;-67
2024/01/16 05:22:11;;;;;;;;;107.75;94.00;;;;;0.58;61.51;100781.03;4966152;28;45772;-66
2024/01/16 05:24:36;;;;;;;;;111.75;97.25;;;;;0.67;61.91;100785.72;4974365;28;45539;-67
2024/01/16 05:27:04;;;;;;;;;114.00;90.00;;;;;0.66;62.30;100762.44;4971806;28;45859;-67
2024/01/16 05:29:30;;;;;;;;;112.00;96.50;;;;;0.71;61.65;100772.13;4970807;28;46593;-67
2024/01/16 05:31:56;;;;;;;;;112.50;93.75;;;;;0.69;61.88;100766.03;4972645;28;45547;-66
2024/01/16 05:34:22;;;;;;;;;114.50;88.75;;;;;0.65;62.07;100758.97;4968809;28;45670;-67
2024/01/16 05:36:47;;;;;;;;;114.50;93.25;;;;;0.68;61.52;100764.25;4974524;28;45747;-66
2024/01/16 05:39:13;;;;;;;;;109.50;96.25;;;;;0.72;61.99;100773.91;4973962;28;45900;-66
2024/01/16 05:41:38;;;;;;;;;133.75;108.00;;;;;0.62;61.55;100761.44;4971358;28;45456;-68
2024/01/16 05:44:04;;;;;;;;;113.00;100.00;;;;;0.77;61.42;100777.53;4976140;28;45363;-65
2024/01/16 05:46:31;;;;;;;;;130.00;109.00;;;;;0.87;61.15;100783.09;4973907;28;45546;-66
2024/01/16 05:48:57;;;;;;;;;110.00;98.50;;;;;0.81;62.30;100789.75;4973944;28;45420;-67
2024/01/16 05:51:23;;;;;;;;;122.25;108.75;;;;;0.72;61.98;100766.16;4974032;28;45602;-67
2024/01/16 05:53:49;;;;;;;;;125.25;109.50;;;;;0.76;61.92;100774.88;4973109;28;45349;-65
2024/01/16 05:56:14;;;;;;;;;124.00;107.75;;;;;0.50;61.88;100732.53;4974157;28;45676;-66
2024/01/16 05:58:40;;;;;;;;;120.75;108.25;;;;;0.60;62.22;100758.78;4963036;28;46765;-66
2024/01/16 06:01:06;;;;;;;;;122.00;104.25;;;;;0.60;62.67;100753.63;4973523;28;45474;-65
2024/01/16 06:03:31;;;;;;;;;123.00;105.25;;;;;0.55;62.04;100747.41;4975700;28;45587;-66
2024/01/16 06:05:58;;;;;;;;;121.25;101.25;;;;;0.61;62.60;100757.09;4974109;28;45521;-68
2024/01/16 06:08:24;;;;;;;;;126.00;102.25;;;;;0.56;62.25;100759.47;4972488;28;46564;-67
2024/01/16 06:10:50;;;;;;;;;123.25;104.75;;;;;0.56;63.36;100759.47;4973047;28;45486;-67
2024/01/16 06:13:15;;;;;;;;;118.00;99.00;;;;;0.60;62.87;100755.34;4971851;28;45579;-67
2024/01/16 06:15:41;;;;;;;;;124.50;106.50;;;;;0.64;62.88;100757.19;4969536;28;45494;-67
2024/01/16 06:18:07;;;;;;;;;126.50;107.25;;;;;0.65;63.00;100761.56;4989798;28;45769;-67
2024/01/16 06:20:33;;;;;;;;;130.50;107.50;;;;;0.53;63.21;100750.75;4973102;28;45570;-66
2024/01/16 06:22:59;;;;;;;;;123.50;101.25;;;;;0.56;62.74;100756.88;4973561;28;45435;-67
2024/01/16 06:25:24;;;;;;;;;127.75;107.75;;;;;0.58;62.69;100750.09;4973744;28;45922;-67
2024/01/16 06:27:50;;;;;;;;;134.75;118.25;;;;;0.62;63.00;100759.72;4973645;28;46245;-67
2024/01/16 06:30:15;;;;;;;;;114.25;99.00;;;;;0.56;62.65;100745.69;4963619;28;45412;-68
2024/01/16 06:32:41;;;;;;;;;120.75;107.00;;;;;0.55;62.93;100754.25;4974084;28;45502;-67
2024/01/16 06:35:08;;;;;;;;;117.25;102.75;;;;;0.54;62.45;100749.91;4973739;28;45566;-68
2024/01/16 06:37:34;;;;;;;;;128.50;107.75;;;;;0.52;62.70;100742.13;4975310;28;46087;-67
2024/01/16 06:39:59;;;;;;;;;125.50;110.75;;;;;0.53;63.53;100753.31;4964216;28;45503;-72
2024/01/16 06:42:25;;;;;;;;;138.00;112.25;;;;;0.53;63.09;100764.50;4974741;28;45449;-68
2024/01/16 06:44:50;;;;;;;;;140.50;112.00;;;;;0.44;63.28;100765.78;4973670;28;45261;-68
2024/01/16 06:47:16;;;;;;;;;135.50;113.00;;;;;0.41;63.68;100758.81;4969595;28;46979;-68
2024/01/16 06:49:42;;;;;;;;;131.50;113.75;;;;;0.28;63.73;100749.66;4973254;28;45801;-67
2024/01/16 06:52:09;;;;;;;;;133.00;114.00;;;;;0.48;63.57;100775.44;4969128;28;45403;-68
2024/01/16 06:54:34;;;;;;;;;130.75;112.75;;;;;0.49;63.14;100782.34;4974224;28;45981;-66
2024/01/16 06:57:00;;;;;;;;;139.75;118.00;;;;;0.11;63.37;100722.28;4987016;28;46968;-67
2024/01/16 06:59:26;;;;;;;;;129.50;109.00;;;;;0.33;63.37;100745.63;4971874;28;45577;-67
2024/01/16 07:01:51;;;;;;;;;131.50;113.75;;;;;0.33;63.27;100737.88;4973066;28;45446;-68
2024/01/16 07:04:17;;;;;;;;;124.25;101.50;;;;;0.48;63.17;100765.13;4972961;28;45926;-67
2024/01/16 07:06:43;;;;;;;;;124.50;109.25;;;;;0.45;63.10;100759.81;4972507;28;46619;-67
2024/01/16 07:09:12;;;;;;;;;116.75;104.50;;;;;0.55;63.18;100770.59;4971518;28;45566;-67
2024/01/16 07:11:42;;;;;;;;;116.00;101.75;;;;;0.47;63.36;100766.78;4973000;28;46273;-69
2024/01/16 07:14:09;;;;;;;;;121.50;100.00;;;;;0.57;62.77;100768.06;4988429;28;45606;-69
2024/01/16 07:16:34;;;;;;;;;121.50;103.50;;;;;0.61;63.59;100764.81;4972723;28;45457;-70
2024/01/16 07:19:00;;;;;;;;;121.25;101.75;;;;;0.49;62.62;100744.56;4972456;28;45521;-67
2024/01/16 07:21:27;;;;;;;;;117.25;95.25;;;;;0.65;62.55;100765.84;4972328;28;45657;-67
2024/01/16 07:23:53;;;;;;;;;119.25;98.00;;;;;0.74;63.03;100776.53;4973567;28;45322;-67
2024/01/16 07:26:19;;;;;;;;;125.00;106.00;;;;;0.65;63.04;100771.00;4962830;28;47629;-67
2024/01/16 07:28:44;;;;;;;;;127.50;114.25;;;;;0.42;63.48;100732.22;4973012;28;45200;-67
2024/01/16 07:31:11;;;;;;;;;122.75;107.75;;;;;0.59;62.48;100762.19;4972498;28;45765;-66
2024/01/16 07:33:37;;;;;;;;;136.25;115.50;;;;;0.68;63.00;100772.00;4969379;28;45937;-66
2024/01/16 07:36:03;;;;;;;;;130.25;110.00;;;;;0.68;62.68;100768.53;4971920;28;47652;-67
2024/01/16 07:38:28;;;;;;;;;120.50;101.00;;;;;0.74;62.50;100776.53;4973687;28;45550;-67
2024/01/16 07:40:54;;;;;;;;;126.50;100.75;;;;;0.70;62.49;100772.94;4973159;28;45744;-67
2024/01/16 07:43:19;;;;;;;;;117.00;102.25;;;;;0.76;63.00;100780.94;4965814;28;45594;-67
2024/01/16 07:45:45;;;;;;;;;117.25;105.25;;;;;0.75;62.72;100761.13;4973959;28;46564;-69
2024/01/16 07:48:10;;;;;;;;;109.00;92.75;;;;;0.72;62.93;100753.28;4953602;28;45663;-67
2024/01/16 07:50:36;;;;;;;;;125.25;108.00;;;;;0.72;62.84;100748.13;4970187;28;45539;-67
2024/01/16 07:53:02;;;;;;;;;127.50;108.75;;;;;0.77;62.18;100753.47;4973513;28;45459;-66
2024/01/16 07:55:28;;;;;;;;;128.50;107.25;;;;;0.76;62.38;100768.06;4970821;28;47555;-67
2024/01/16 07:58:04;;;;;;;;;124.50;112.00;;;;;0.56;62.17;100759.47;4973611;28;45822;-66
2024/01/16 08:00:31;;;;;;;;;130.00;113.00;;;;;0.61;62.32;100773.41;4972476;28;45458;-67
2024/01/16 08:03:02;;;;;;;;;129.25;107.25;;;;;0.65;62.26;100771.88;4972811;28;45553;-66
2024/01/16 08:05:30;;;;;;;;;128.75;113.00;;;;;0.55;62.34;100751.69;4974531;28;45682;-67
2024/01/16 08:07:58;;;;;;;;;122.75;108.25;;;;;0.60;63.31;100778.53;4975940;28;45530;-66
2024/01/16 08:10:24;;;;;;;;;122.50;102.50;;;;;0.71;62.53;100792.75;4976255;28;45848;-67
2024/01/16 08:12:50;;;;;;;;;128.00;108.50;;;;;0.53;62.57;100758.47;4974641;28;45451;-67
2024/01/16 08:15:15;;;;;;;;;122.75;110.75;;;;;0.53;62.87;100754.19;4975081;28;46115;-66
2024/01/16 08:17:41;;;;;;;;;124.25;109.50;;;;;0.61;62.16;100762.25;4972577;28;45561;-67
2024/01/16 08:20:09;;;;;;;;;126.25;105.75;;;;;0.57;62.55;100743.19;4978188;28;45437;-67
2024/01/16 08:22:38;;;;;;;;;125.25;108.75;;;;;0.74;62.19;100773.97;4979378;28;45430;-68
2024/01/16 08:25:07;;;;;;;;;126.50;106.25;;;;;0.76;62.29;100780.94;4980150;28;45386;-68
2024/01/16 08:27:33;;;;;;;;;131.75;113.00;;;;;0.81;61.50;100786.31;4979137;28;45859;-67
2024/01/16 08:30:00;;;;;;;;;134.50;111.25;;;;;0.88;62.37;100785.75;4978919;28;45471;-66
2024/01/16 08:32:26;;;;;;;;;131.25;110.00;;;;;0.97;61.51;100788.72;4977863;28;45682;-67
2024/01/16 08:34:52;;;;;;;;;131.25;110.00;;;;;1.04;61.39;100800.13;4978653;28;46221;-66
2024/01/16 08:37:18;;;;;;;;;152.25;117.50;;;;;1.06;61.34;100783.03;4979471;28;45490;-68
2024/01/16 08:39:44;;;;;;;;;143.75;125.00;;;;;1.25;61.30;100807.88;4978314;28;45367;-67
2024/01/16 08:42:11;;;;;;;;;99.50;77.25;;;;;1.26;61.44;100805.38;4978792;28;45371;-66
2024/01/16 08:44:40;;;;;;;;;129.75;118.25;;;;;1.18;60.82;100777.47;4976589;28;46891;-67
2024/01/16 08:47:06;;;;;;;;;147.50;127.00;;;;;1.37;60.29;100799.75;4977091;28;45892;-66
2024/01/16 08:49:33;;;;;;;;;131.00;124.75;;;;;1.27;60.34;100781.31;4978355;28;45333;-67
2024/01/16 08:51:58;;;;;;;;;144.50;119.25;;;;;1.24;61.04;100786.34;4978404;28;45627;-66
2024/01/16 08:54:25;;;;;;;;;134.25;119.25;;;;;1.27;61.00;100790.75;4978305;28;45881;-65
2024/01/16 08:56:51;;;;;;;;;140.50;122.50;;;;;1.29;60.13;100775.34;4977308;28;45474;-66
2024/01/16 08:59:17;;;;;;;;;146.00;129.25;;;;;1.53;60.25;100773.72;4976545;28;45408;-66
2024/01/16 09:01:42;;;;;;;;;145.75;127.25;;;;;1.78;59.26;100767.81;4978436;28;45438;-66
2024/01/16 09:04:08;;;;;;;;;152.50;132.75;;;;;1.89;58.66;100769.09;4978871;28;45516;-66
2024/01/16 09:06:34;;;;;;;;;155.25;127.00;;;;;1.79;58.31;100741.16;4977997;28;45494;-68
2024/01/16 09:08:59;;;;;;;;;150.25;132.25;;;;;1.76;58.61;100761.72;4978005;28;45662;-66
2024/01/16 09:11:25;;;;;;;;;141.75;123.00;;;;;1.67;58.79;100775.16;4976950;28;45581;-67
2024/01/16 09:13:51;;;;;;;;;144.75;122.75;;;;;1.95;58.97;100775.31;4977513;28;45461;-66
2024/01/16 09:16:17;;;;;;;;;138.00;127.50;;;;;2.13;58.25;100770.81;4968953;28;45402;-66
2024/01/16 09:18:42;;;;;;;;;132.75;116.25;;;;;2.28;57.45;100758.47;4973135;28;45558;-68
2024/01/16 09:21:08;;;;;;;;;141.00;124.00;;;;;2.55;57.51;100757.69;4993481;28;45373;-69
2024/01/16 09:23:33;;;;;;;;;133.50;119.75;;;;;2.71;56.20;100741.84;4977522;28;45512;-66
2024/01/16 09:25:59;;;;;;;;;139.50;127.50;;;;;3.66;55.73;100771.63;4977919;28;45542;-67
2024/01/16 09:28:25;;;;;;;;;133.00;116.00;;;;;5.68;51.67;100768.31;4976143;28;45499;-67
2024/01/16 09:30:51;;;;;;;;;138.50;116.50;;;;;7.89;46.74;100737.53;4978057;28;45502;-66
2024/01/16 09:33:16;;;;;;;;;126.75;112.50;;;;;9.88;44.26;100755.03;4976061;28;45452;-67
2024/01/16 09:35:42;;;;;;;;;118.75;107.50;;;;;11.73;41.32;100744.84;4977620;28;45504;-66
2024/01/16 09:38:08;;;;;;;;;112.25;105.00;;;;;13.48;37.93;100725.41;4977745;28;45418;-66
2024/01/16 09:40:35;;;;;;;;;121.75;108.50;;;;;14.57;35.89;100721.47;4960289;28;45313;-67
2024/01/16 09:43:01;;;;;;;;;121.25;110.00;;;;;15.80;32.92;100709.69;4977677;28;45525;-66
2024/01/16 09:45:30;;;;;;;;;125.50;113.50;;;;;17.01;29.68;100706.09;4976576;28;45322;-66
2024/01/16 09:47:56;;;;;;;;;110.67;92.33;;;;;18.03;29.15;100704.25;4977609;28;45329;-65
2024/01/16 09:50:22;;;;;;;;;105.67;89.67;;;;;19.07;27.24;100694.81;4976559;28;45624;-67
2024/01/16 09:52:49;;;;;;;;;95.67;83.67;;;;;20.01;26.01;100689.72;4976003;28;46471;-66
2024/01/16 09:55:15;;;;;;;;;94.67;85.33;;;;;20.79;24.69;100685.81;4977135;28;45492;-67
2024/01/16 09:57:41;;;;;;;;;85.00;77.50;;;;;21.24;24.34;100687.47;4963902;28;45488;-68
2024/01/16 10:00:11;;;;;;;;;89.50;81.00;;;;;21.94;22.94;100678.13;4992871;28;45390;-67
2024/01/16 10:02:41;;;;;;;;;83.25;75.00;;;;;22.72;22.56;100686.91;4977052;28;45451;-66
2024/01/16 10:05:08;;;;;;;;;81.75;70.25;;;;;23.44;21.59;100685.06;4977403;28;45416;-67
2024/01/16 10:07:37;;;;;;;;;80.00;65.25;;;;;23.55;20.98;100681.84;4977467;28;45436;-67
2024/01/16 10:10:03;;;;;;;;;69.25;54.50;;;;;23.67;20.16;100663.34;4977685;28;45560;-66
2024/01/16 10:12:30;;;;;;;;;79.00;66.75;;;;;23.67;20.22;100676.69;4991885;28;46604;-68
2024/01/16 10:14:56;;;;;;;;;84.00;75.75;;;;;24.18;19.65;100681.13;4975768;28;45355;-66
2024/01/16 10:17:22;;;;;;;;;83.50;76.75;;;;;24.30;19.78;100669.75;4992035;28;45273;-66
2024/01/16 10:19:49;;;;;;;;;80.50;71.25;;;;;24.28;19.16;100671.66;4976913;28;45304;-67
2024/01/16 10:22:24;;;;;;;;;84.00;77.25;;;;;24.83;19.46;100679.22;4974383;28;46459;-66
2024/01/16 10:25:16;;;;;;;;;78.25;68.75;;;;;25.00;19.03;100670.19;4975273;28;45537;-67
2024/01/16 10:27:42;;;;;;;;;79.75;72.50;;;;;25.52;18.75;100669.75;4975682;28;45455;-67
2024/01/16 10:30:12;;;;;;;;;77.50;65.75;;;;;25.69;18.32;100673.22;4977223;28;45576;-67
2024/01/16 10:32:39;;;;;;;;;81.75;69.75;;;;;25.71;18.01;100666.78;4976375;28;46117;-67
2024/01/16 10:35:10;;;;;;;;;79.25;68.00;;;;;26.48;18.13;100659.25;4976155;28;45308;-68
2024/01/16 10:37:53;;;;;;;;;73.75;57.75;;;;;27.26;17.43;100643.28;4934760;28;45593;-68
2024/01/16 10:40:20;;;;;;;;;71.00;53.25;;;;;27.59;17.58;100667.91;4970515;28;45563;-68
2024/01/16 10:42:56;;;;;;;;;73.25;56.75;;;;;27.74;16.39;100642.59;4969817;28;46267;-69
2024/01/16 10:45:22;;;;;;;;;72.50;58.00;;;;;27.89;16.05;100641.53;4969273;28;45611;-68
2024/01/16 10:47:48;;;;;;;;;74.25;63.00;;;;;27.92;15.75;100641.28;4971633;28;45623;-67
2024/01/16 10:50:14;;;;;;;;;76.75;65.00;;;;;28.01;16.03;100647.84;4968785;28;45403;-68
2024/01/16 10:52:48;;;;;;;;;77.50;68.25;;;;;27.49;15.68;100643.47;4970252;28;47170;-68
2024/01/16 10:55:21;;;;;;;;;76.50;65.50;;;;;27.90;15.99;100643.25;4968896;28;45496;-68
2024/01/16 10:57:48;;;;;;;;;78.50;70.00;;;;;27.93;15.93;100617.94;4967861;28;45975;-68
2024/01/16 11:00:16;;;;;;;;;76.50;67.00;;;;;27.58;16.05;100629.38;4971738;28;45513;-67
2024/01/16 11:02:59;;;;;;;;;78.33;68.33;;;;;27.66;15.62;100620.75;4970224;28;45884;-71
2024/01/16 11:05:26;;;;;;;;;79.75;69.50;;;;;27.70;15.79;100625.81;4967063;28;45438;-67